Latest Coastal Weather Observations for Port Kembla Harbour

IDN60701

Issued at 2:35 am EST Thursday 21 August 2014 (issued every 10 minutes, with the page automatically refreshed every 10 minutes)

About coastal observations | Map of coastal stations | Coastal observations for NSW | Marine services | Other Formats
Station Details ID: 068253 Name: PORT KEMBLA NTC AWS Lat: -34.47 Lon: 150.91 Height: 0.0 m
Data from the previous 72 hours. | See also: Recent months for locations in New South Wales
Date/Time
EST
Temp

°C
Wind Pressure Rain
since 9am
mm
Weather Cloud Vis
km
Sea
Height
m
Swell
Dir
 
Speed
knots
Gust
knots
hPa Trend Height
m
Period
s
Dir
21/02:30am 11.4 SW 4 6 1026.6 - - - - - - - - -
21/02:00am 11.7 WSW 5 7 1026.6 - - - - - - - - -
21/01:30am 11.8 WSW 6 8 1026.7 - - - - - - - - -
21/01:00am 11.8 WSW 5 8 1026.8 - - - - - - - - -
21/12:30am 11.6 WSW 6 8 1027.0 - - - - - - - - -
21/12:00am 11.3 WSW 5 6 1027.0 - - - - - - - - -
 
Date/Time
EST
Temp

°C
Wind Pressure Rain
since 9am
mm
Weather Cloud Vis
km
Sea
Height
m
Swell
Dir
 
Speed
knots
Gust
knots
hPa Trend Height
m
Period
s
Dir
20/11:30pm 11.4 WSW 5 7 1026.9 - - - - - - - - -
20/11:00pm 11.5 WSW 6 8 1026.8 - - - - - - - - -
20/10:30pm 12.0 WSW 7 9 1027.0 - - - - - - - - -
20/10:00pm 11.9 WSW 6 8 1027.1 - - - - - - - - -
20/09:30pm 11.9 WSW 5 7 1027.2 - - - - - - - - -
20/09:00pm 12.0 WSW 6 7 1027.1 - - - - - - - - -
20/08:30pm 12.1 WSW 5 6 1027.0 - - - - - - - - -
20/08:00pm 12.3 WSW 6 7 1026.6 - - - - - - - - -
20/07:30pm 13.1 WSW 6 10 1026.5 - - - - - - - - -
20/07:00pm 13.3 WSW 6 9 1026.3 - - - - - - - - -
20/06:30pm 13.9 SW 7 11 1025.9 - - - - - - - - -
20/06:00pm 14.5 S 7 15 1025.7 - - - - - - - - -
20/05:30pm 14.4 S 6 13 1025.3 - - - - - - - - -
20/05:00pm 14.4 S 7 14 1025.0 - - - - - - - - -
20/04:30pm 14.7 S 6 12 1024.8 - - - - - - - - -
20/04:00pm 14.6 S 6 14 1024.6 - - - - - - - - -
20/03:30pm 15.0 S 5 12 1024.4 - - - - - - - - -
20/03:00pm 15.0 S 7 13 1024.2 - - - - - - - - -
20/02:30pm 14.9 S 7 16 1024.1 - - - - - - - - -
20/02:00pm 15.1 S 7 13 1024.0 - - - - - - - - -
20/01:30pm 15.1 S 7 15 1024.0 - - - - - - - - -
20/01:00pm 14.9 S 7 15 1024.1 - - - - - - - - -
20/12:30pm 14.9 S 6 11 1024.3 - - - - - - - - -
20/12:00pm 14.8 S 6 12 1024.7 - - - - - - - - -
20/11:30am 14.3 S 7 13 1024.9 - - - - - - - - -
20/11:00am 14.3 SSW 8 15 1025.0 - - - - - - - - -
20/10:30am 13.7 SW 11 17 1025.0 - - - - - - - - -
20/10:00am 13.5 SW 12 19 1025.0 - - - - - - - - -
20/09:30am 13.3 SW 12 16 1024.9 - - - - - - - - -
20/09:00am 12.9 SW 10 16 1024.8 - - - - - - - - -
20/08:30am 12.6 SW 9 13 1024.5 - - - - - - - - -
20/08:00am 12.2 WSW 7 10 1024.4 - - - - - - - - -
20/07:30am 11.6 SW 8 12 1024.1 - - - - - - - - -
20/07:00am 11.6 WSW 9 13 1023.7 - - - - - - - - -
20/06:30am 11.4 WSW 10 14 1023.4 - - - - - - - - -
20/06:00am 11.2 WSW 11 17 1023.0 - - - - - - - - -
20/05:30am 11.5 SW 11 21 1022.7 - - - - - - - - -
20/05:00am 11.7 WSW 10 13 1022.3 - - - - - - - - -
20/04:30am 11.6 WSW 11 17 1022.1 - - - - - - - - -
20/04:00am 11.8 SW 10 20 1021.9 - - - - - - - - -
20/03:30am 11.9 SW 9 14 1021.7 - - - - - - - - -
20/03:00am 12.4 SW 8 12 1021.4 - - - - - - - - -
20/02:30am 12.1 SW 10 15 1021.5 - - - - - - - - -
20/02:00am 12.7 SW 8 12 1021.6 - - - - - - - - -
20/01:30am 12.9 WSW 9 14 1021.6 - - - - - - - - -
20/01:00am 12.8 WSW 12 17 1021.6 - - - - - - - - -
20/12:30am 12.9 WSW 11 20 1021.6 - - - - - - - - -
20/12:00am 12.6 WSW 9 13 1021.5 - - - - - - - - -
 
Date/Time
EST
Temp

°C
Wind Pressure Rain
since 9am
mm
Weather Cloud Vis
km
Sea
Height
m
Swell
Dir
 
Speed
knots
Gust
knots
hPa Trend Height
m
Period
s
Dir
19/11:30pm 12.5 SW 10 15 1021.5 - - - - - - - - -
19/11:00pm 12.9 SW 11 19 1021.5 - - - - - - - - -
19/10:30pm 13.2 SW 12 18 1021.3 - - - - - - - - -
19/10:00pm 13.3 SW 12 17 1021.3 - - - - - - - - -
19/09:30pm 13.4 SW 12 19 1021.1 - - - - - - - - -
19/09:00pm 13.5 SW 11 18 1021.0 - - - - - - - - -
19/08:30pm 13.7 SW 10 16 1020.9 - - - - - - - - -
19/08:00pm 13.8 SW 12 19 1020.7 - - - - - - - - -
19/07:30pm 13.9 SW 12 20 1020.4 - - - - - - - - -
19/07:00pm 14.2 SW 13 20 1020.1 - - - - - - - - -
19/06:30pm 14.3 SW 12 21 1019.5 - - - - - - - - -
19/06:00pm 14.5 SW 15 23 1019.0 - - - - - - - - -
19/05:30pm 14.5 SW 14 21 1018.6 - - - - - - - - -
19/05:00pm 13.9 SSW 13 26 1018.4 - - - - - - - - -
19/04:30pm 14.2 SW 13 23 1018.0 - - - - - - - - -
19/04:00pm 14.1 SW 16 26 1017.7 - - - - - - - - -
19/03:53pm 14.0 SW 15 25 1017.5 - - - - - - - - -
19/03:30pm 14.4 SW 15 25 1017.2 - - - - - - - - -
19/03:00pm 14.9 SSW 12 23 1016.9 - - - - - - - - -
19/02:30pm 14.4 SSW 12 21 1016.6 - - - - - - - - -
19/02:00pm 14.5 SSW 13 21 1016.3 - - - - - - - - -
19/01:30pm 14.6 SSW 10 21 1016.1 - - - - - - - - -
19/01:00pm 15.8 SW 16 27 1015.7 - - - - - - - - -
19/12:39pm 15.6 SW 16 26 1015.7 - - - - - - - - -
19/12:30pm 15.1 SW 18 27 1015.7 - - - - - - - - -
19/12:16pm 15.7 SW 16 27 1015.9 - - - - - - - - -
19/12:00pm 15.5 SW 17 25 1016.0 - - - - - - - - -
19/11:55am 15.6 SW 15 25 1016.1 - - - - - - - - -
19/11:30am 15.4 SW 13 22 1016.2 - - - - - - - - -
19/11:00am 14.8 SW 15 24 1016.3 - - - - - - - - -
19/10:30am 14.6 SW 13 22 1016.1 - - - - - - - - -
19/10:00am 14.2 SW 15 23 1016.0 - - - - - - - - -
19/09:30am 14.8 SW 11 18 1015.9 - - - - - - - - -
19/09:00am 13.3 WSW 9 14 1015.9 - - - - - - - - -
19/08:30am 13.1 SW 10 16 1015.6 - - - - - - - - -
19/08:00am 13.5 SW 9 13 1015.0 - - - - - - - - -
19/07:30am 13.6 WSW 10 15 1014.8 - - - - - - - - -
19/07:00am 13.8 SSW 9 21 1014.4 - - - - - - - - -
19/06:30am 14.2 SW 12 23 1013.9 - - - - - - - - -
19/06:00am 14.0 SSW 13 21 1013.7 - - - - - - - - -
19/05:30am 14.8 S 12 21 1013.3 - - - - - - - - -
19/05:00am 14.7 S 12 24 1013.0 - - - - - - - - -
19/04:30am 14.3 SSW 10 18 1012.6 - - - - - - - - -
19/04:00am 14.4 SSW 12 25 1012.4 - - - - - - - - -
19/03:30am 14.2 SSW 13 22 1012.0 - - - - - - - - -
19/03:00am 13.9 S 9 17 1011.9 - - - - - - - - -
19/02:30am 14.0 SW 12 20 1011.5 - - - - - - - - -
19/02:00am 13.5 SSW 8 20 1011.5 - - - - - - - - -
19/01:30am 13.7 SW 14 22 1011.2 - - - - - - - - -
19/01:00am 14.3 SSW 13 22 1011.2 - - - - - - - - -
19/12:30am 14.0 SSW 12 26 1011.0 - - - - - - - - -
19/12:00am 13.6 SSW 12 21 1010.9 - - - - - - - - -
 
Date/Time
EST
Temp

°C
Wind Pressure Rain
since 9am
mm
Weather Cloud Vis
km
Sea
Height
m
Swell
Dir
 
Speed
knots
Gust
knots
hPa Trend Height
m
Period
s
Dir
18/11:30pm 13.6 SSW 12 21 1010.7 - - - - - - - - -
18/11:00pm 14.7 S 11 23 1010.3 - - - - - - - - -
18/10:30pm 13.7 SSW 11 22 1010.2 - - - - - - - - -
18/10:00pm 14.3 S 14 27 1010.1 - - - - - - - - -
18/09:30pm 14.4 SSW 11 23 1009.7 - - - - - - - - -
18/09:00pm 14.8 SSW 11 24 1009.4 - - - - - - - - -
18/08:30pm 14.3 SSW 12 23 1009.1 - - - - - - - - -
18/08:00pm 14.5 SSW 12 25 1008.9 - - - - - - - - -
18/07:30pm 14.3 SSW 13 26 1008.4 - - - - - - - - -
18/07:00pm 13.6 SSW 13 24 1008.2 - - - - - - - - -
18/06:33pm 13.3 SW 15 27 1007.7 - - - - - - - - -
18/06:30pm 13.3 SSW 13 23 1007.6 - - - - - - - - -
18/06:00pm 13.3 SW 16 27 1007.2 - - - - - - - - -
18/05:34pm 13.3 SW 15 26 1006.8 - - - - - - - - -
18/05:30pm 13.2 SW 15 24 1006.8 - - - - - - - - -
18/05:18pm 12.9 SW 16 27 1006.8 - - - - - - - - -
18/05:00pm 13.1 SW 18 27 1006.4 - - - - - - - - -
18/04:30pm 13.5 SW 17 28 1006.0 - - - - - - - - -
18/04:01pm 13.4 SW 17 27 1006.0 - - - - - - - - -
18/04:00pm 13.4 SW 18 27 1005.9 - - - - - - - - -
18/03:30pm 13.8 SW 19 27 1005.7 - - - - - - - - -
18/03:00pm 13.4 SSW 17 27 1005.7 - - - - - - - - -
18/02:53pm 13.6 SSW 15 26 1005.9 - - - - - - - - -
18/02:30pm 13.7 SW 15 24 1005.8 - - - - - - - - -
18/02:04pm 13.2 SSW 15 27 1005.9 - - - - - - - - -
18/02:00pm 13.8 SSW 13 27 1005.9 - - - - - - - - -
18/01:31pm 13.4 S 15 27 1005.9 - - - - - - - - -
18/01:30pm 13.4 S 14 27 1005.9 - - - - - - - - -
18/01:00pm 14.6 S 10 20 1005.7 - - - - - - - - -
18/12:44pm 14.3 S 15 25 1005.9 - - - - - - - - -

Other Formats:

Comma delimited format used in spreadsheet applications
http://www.bom.gov.au/fwo/IDN60701/IDN60701.95745.axf

JavaScript Object Notation format (JSON) in row-major order
http://www.bom.gov.au/fwo/IDN60701/IDN60701.95745.json